sensor_id;sensor_type;location;lat;lon;timestamp;P1;durP1;ratioP1;P2;durP2;ratioP2
68072;SDS011;54862;51.502;7.446;2023-07-28T00:00:24;3.42;;;1.67;;
68072;SDS011;54862;51.502;7.446;2023-07-28T00:02:52;2.72;;;1.80;;
68072;SDS011;54862;51.502;7.446;2023-07-28T00:05:18;2.97;;;1.73;;
68072;SDS011;54862;51.502;7.446;2023-07-28T00:07:46;1.75;;;1.45;;
68072;SDS011;54862;51.502;7.446;2023-07-28T00:10:14;2.15;;;1.40;;
68072;SDS011;54862;51.502;7.446;2023-07-28T00:12:40;2.03;;;1.50;;
68072;SDS011;54862;51.502;7.446;2023-07-28T00:15:06;1.42;;;1.33;;
68072;SDS011;54862;51.502;7.446;2023-07-28T00:17:32;3.58;;;1.83;;
68072;SDS011;54862;51.502;7.446;2023-07-28T00:19:58;3.40;;;1.58;;
68072;SDS011;54862;51.502;7.446;2023-07-28T00:22:26;3.65;;;1.52;;
68072;SDS011;54862;51.502;7.446;2023-07-28T00:24:52;1.85;;;1.48;;
68072;SDS011;54862;51.502;7.446;2023-07-28T00:27:18;2.00;;;1.42;;
68072;SDS011;54862;51.502;7.446;2023-07-28T00:29:44;2.92;;;1.75;;
68072;SDS011;54862;51.502;7.446;2023-07-28T00:32:10;2.22;;;1.50;;
68072;SDS011;54862;51.502;7.446;2023-07-28T00:34:36;4.25;;;1.83;;
68072;SDS011;54862;51.502;7.446;2023-07-28T00:37:02;1.90;;;1.50;;
68072;SDS011;54862;51.502;7.446;2023-07-28T00:39:28;2.85;;;1.75;;
68072;SDS011;54862;51.502;7.446;2023-07-28T00:41:54;3.40;;;2.00;;
68072;SDS011;54862;51.502;7.446;2023-07-28T00:44:20;2.40;;;1.65;;
68072;SDS011;54862;51.502;7.446;2023-07-28T00:46:46;3.35;;;1.90;;
68072;SDS011;54862;51.502;7.446;2023-07-28T00:49:13;2.88;;;1.60;;
68072;SDS011;54862;51.502;7.446;2023-07-28T00:51:39;3.33;;;1.70;;
68072;SDS011;54862;51.502;7.446;2023-07-28T00:54:05;2.00;;;1.33;;
68072;SDS011;54862;51.502;7.446;2023-07-28T00:56:34;2.35;;;1.50;;
68072;SDS011;54862;51.502;7.446;2023-07-28T00:59:02;1.45;;;1.33;;
68072;SDS011;54862;51.502;7.446;2023-07-28T01:01:28;3.13;;;1.60;;
68072;SDS011;54862;51.502;7.446;2023-07-28T01:03:59;2.22;;;1.50;;
68072;SDS011;54862;51.502;7.446;2023-07-28T01:09:03;1.65;;;1.45;;
68072;SDS011;54862;51.502;7.446;2023-07-28T01:11:32;5.78;;;1.60;;
68072;SDS011;54862;51.502;7.446;2023-07-28T01:14:00;2.03;;;1.33;;
68072;SDS011;54862;51.502;7.446;2023-07-28T01:16:28;1.40;;;1.27;;
68072;SDS011;54862;51.502;7.446;2023-07-28T01:18:54;1.95;;;1.45;;
68072;SDS011;54862;51.502;7.446;2023-07-28T01:21:25;2.25;;;1.52;;
68072;SDS011;54862;51.502;7.446;2023-07-28T01:26:25;1.83;;;1.40;;
68072;SDS011;54862;51.502;7.446;2023-07-28T01:28:51;2.42;;;1.50;;
68072;SDS011;54862;51.502;7.446;2023-07-28T01:31:20;1.05;;;1.05;;
68072;SDS011;54862;51.502;7.446;2023-07-28T01:33:46;3.40;;;1.38;;
68072;SDS011;54862;51.502;7.446;2023-07-28T01:36:12;3.60;;;1.20;;
68072;SDS011;54862;51.502;7.446;2023-07-28T01:38:40;1.50;;;1.30;;
68072;SDS011;54862;51.502;7.446;2023-07-28T01:41:06;1.77;;;1.23;;
68072;SDS011;54862;51.502;7.446;2023-07-28T01:43:35;1.38;;;1.30;;
68072;SDS011;54862;51.502;7.446;2023-07-28T01:46:01;1.58;;;1.40;;
68072;SDS011;54862;51.502;7.446;2023-07-28T01:48:27;1.20;;;1.20;;
68072;SDS011;54862;51.502;7.446;2023-07-28T01:50:53;1.42;;;1.30;;
68072;SDS011;54862;51.502;7.446;2023-07-28T01:53:19;1.52;;;1.13;;
68072;SDS011;54862;51.502;7.446;2023-07-28T01:55:47;2.03;;;1.25;;
68072;SDS011;54862;51.502;7.446;2023-07-28T01:58:13;1.20;;;1.15;;
68072;SDS011;54862;51.502;7.446;2023-07-28T02:00:39;1.58;;;1.23;;
68072;SDS011;54862;51.502;7.446;2023-07-28T02:03:05;1.98;;;1.38;;
68072;SDS011;54862;51.502;7.446;2023-07-28T02:05:32;2.55;;;1.42;;
68072;SDS011;54862;51.502;7.446;2023-07-28T02:07:58;1.77;;;1.23;;
68072;SDS011;54862;51.502;7.446;2023-07-28T02:10:27;1.92;;;1.10;;
68072;SDS011;54862;51.502;7.446;2023-07-28T02:12:53;1.30;;;1.20;;
68072;SDS011;54862;51.502;7.446;2023-07-28T02:15:19;1.75;;;1.38;;
68072;SDS011;54862;51.502;7.446;2023-07-28T02:17:48;1.10;;;1.10;;
68072;SDS011;54862;51.502;7.446;2023-07-28T02:20:14;2.03;;;1.52;;
68072;SDS011;54862;51.502;7.446;2023-07-28T02:22:40;2.22;;;1.35;;
68072;SDS011;54862;51.502;7.446;2023-07-28T02:25:07;1.40;;;1.30;;
68072;SDS011;54862;51.502;7.446;2023-07-28T02:27:33;1.42;;;1.30;;
68072;SDS011;54862;51.502;7.446;2023-07-28T02:29:59;1.63;;;1.20;;
68072;SDS011;54862;51.502;7.446;2023-07-28T02:32:25;1.92;;;1.40;;
68072;SDS011;54862;51.502;7.446;2023-07-28T02:34:52;1.10;;;1.10;;
68072;SDS011;54862;51.502;7.446;2023-07-28T02:37:17;1.50;;;1.23;;
68072;SDS011;54862;51.502;7.446;2023-07-28T02:39:43;1.65;;;1.30;;
68072;SDS011;54862;51.502;7.446;2023-07-28T02:42:09;1.50;;;1.40;;
68072;SDS011;54862;51.502;7.446;2023-07-28T02:44:35;1.50;;;1.40;;
68072;SDS011;54862;51.502;7.446;2023-07-28T02:47:01;1.23;;;1.08;;
68072;SDS011;54862;51.502;7.446;2023-07-28T02:49:30;1.20;;;1.10;;
68072;SDS011;54862;51.502;7.446;2023-07-28T02:51:56;1.20;;;1.20;;
68072;SDS011;54862;51.502;7.446;2023-07-28T02:54:22;1.30;;;1.20;;
68072;SDS011;54862;51.502;7.446;2023-07-28T02:56:52;1.40;;;1.30;;
68072;SDS011;54862;51.502;7.446;2023-07-28T02:59:19;1.20;;;1.10;;
68072;SDS011;54862;51.502;7.446;2023-07-28T03:01:45;1.67;;;1.20;;
68072;SDS011;54862;51.502;7.446;2023-07-28T03:04:11;1.75;;;1.30;;
68072;SDS011;54862;51.502;7.446;2023-07-28T03:06:37;1.30;;;1.23;;
68072;SDS011;54862;51.502;7.446;2023-07-28T03:09:03;0.90;;;0.90;;
68072;SDS011;54862;51.502;7.446;2023-07-28T03:11:29;1.83;;;1.38;;
68072;SDS011;54862;51.502;7.446;2023-07-28T03:14:00;1.17;;;1.08;;
68072;SDS011;54862;51.502;7.446;2023-07-28T03:16:26;0.90;;;0.90;;
68072;SDS011;54862;51.502;7.446;2023-07-28T03:18:52;2.08;;;1.33;;
68072;SDS011;54862;51.502;7.446;2023-07-28T03:21:18;1.20;;;1.10;;
68072;SDS011;54862;51.502;7.446;2023-07-28T03:23:44;0.95;;;0.95;;
68072;SDS011;54862;51.502;7.446;2023-07-28T03:26:12;1.00;;;1.00;;
68072;SDS011;54862;51.502;7.446;2023-07-28T03:28:40;1.25;;;1.10;;
68072;SDS011;54862;51.502;7.446;2023-07-28T03:31:06;1.15;;;1.05;;
68072;SDS011;54862;51.502;7.446;2023-07-28T03:33:32;1.00;;;1.00;;
68072;SDS011;54862;51.502;7.446;2023-07-28T03:36:03;0.90;;;0.90;;
68072;SDS011;54862;51.502;7.446;2023-07-28T03:38:29;1.00;;;1.00;;
68072;SDS011;54862;51.502;7.446;2023-07-28T03:40:55;1.00;;;1.00;;
68072;SDS011;54862;51.502;7.446;2023-07-28T03:43:21;1.20;;;1.10;;
68072;SDS011;54862;51.502;7.446;2023-07-28T03:45:47;0.90;;;0.90;;
68072;SDS011;54862;51.502;7.446;2023-07-28T03:48:13;1.38;;;1.10;;
68072;SDS011;54862;51.502;7.446;2023-07-28T03:50:39;1.10;;;1.00;;
68072;SDS011;54862;51.502;7.446;2023-07-28T03:53:07;1.10;;;1.10;;
68072;SDS011;54862;51.502;7.446;2023-07-28T03:55:34;0.80;;;0.80;;
68072;SDS011;54862;51.502;7.446;2023-07-28T03:58:00;1.05;;;1.05;;
68072;SDS011;54862;51.502;7.446;2023-07-28T04:00:26;0.95;;;0.90;;
68072;SDS011;54862;51.502;7.446;2023-07-28T04:02:52;0.95;;;0.95;;
68072;SDS011;54862;51.502;7.446;2023-07-28T04:05:18;1.00;;;1.00;;
68072;SDS011;54862;51.502;7.446;2023-07-28T04:07:44;1.05;;;1.05;;
68072;SDS011;54862;51.502;7.446;2023-07-28T04:10:10;0.80;;;0.80;;
68072;SDS011;54862;51.502;7.446;2023-07-28T04:12:36;0.82;;;0.82;;
68072;SDS011;54862;51.502;7.446;2023-07-28T04:15:02;1.08;;;1.05;;
68072;SDS011;54862;51.502;7.446;2023-07-28T04:17:28;1.40;;;1.10;;
68072;SDS011;54862;51.502;7.446;2023-07-28T04:19:54;1.08;;;1.08;;
68072;SDS011;54862;51.502;7.446;2023-07-28T04:22:20;1.00;;;1.00;;
68072;SDS011;54862;51.502;7.446;2023-07-28T04:24:46;0.98;;;0.98;;
68072;SDS011;54862;51.502;7.446;2023-07-28T04:27:13;0.90;;;0.90;;
68072;SDS011;54862;51.502;7.446;2023-07-28T04:29:43;0.90;;;0.90;;
68072;SDS011;54862;51.502;7.446;2023-07-28T04:32:09;0.88;;;0.88;;
68072;SDS011;54862;51.502;7.446;2023-07-28T04:34:35;0.82;;;0.82;;
68072;SDS011;54862;51.502;7.446;2023-07-28T04:37:01;2.13;;;0.90;;
68072;SDS011;54862;51.502;7.446;2023-07-28T04:39:27;0.98;;;0.90;;
68072;SDS011;54862;51.502;7.446;2023-07-28T04:41:53;0.90;;;0.90;;
68072;SDS011;54862;51.502;7.446;2023-07-28T04:44:19;0.80;;;0.80;;
68072;SDS011;54862;51.502;7.446;2023-07-28T04:46:45;1.00;;;1.00;;
68072;SDS011;54862;51.502;7.446;2023-07-28T04:49:14;1.67;;;1.30;;
68072;SDS011;54862;51.502;7.446;2023-07-28T04:51:40;1.25;;;1.10;;
68072;SDS011;54862;51.502;7.446;2023-07-28T04:54:06;0.90;;;0.90;;
68072;SDS011;54862;51.502;7.446;2023-07-28T04:56:34;1.35;;;1.20;;
68072;SDS011;54862;51.502;7.446;2023-07-28T04:59:03;1.17;;;1.00;;
68072;SDS011;54862;51.502;7.446;2023-07-28T05:01:33;0.82;;;0.82;;
68072;SDS011;54862;51.502;7.446;2023-07-28T05:03:59;1.20;;;1.00;;
68072;SDS011;54862;51.502;7.446;2023-07-28T05:06:27;1.45;;;1.20;;
68072;SDS011;54862;51.502;7.446;2023-07-28T05:08:53;1.10;;;1.10;;
68072;SDS011;54862;51.502;7.446;2023-07-28T05:11:19;0.98;;;0.98;;
68072;SDS011;54862;51.502;7.446;2023-07-28T05:13:48;1.02;;;1.02;;
68072;SDS011;54862;51.502;7.446;2023-07-28T05:16:14;0.90;;;0.90;;
68072;SDS011;54862;51.502;7.446;2023-07-28T05:18:42;0.98;;;0.98;;
68072;SDS011;54862;51.502;7.446;2023-07-28T05:21:08;1.00;;;1.00;;
68072;SDS011;54862;51.502;7.446;2023-07-28T05:23:34;1.00;;;1.00;;
68072;SDS011;54862;51.502;7.446;2023-07-28T05:26:00;1.50;;;1.00;;
68072;SDS011;54862;51.502;7.446;2023-07-28T05:28:28;1.40;;;1.25;;
68072;SDS011;54862;51.502;7.446;2023-07-28T05:31:02;2.05;;;1.20;;
68072;SDS011;54862;51.502;7.446;2023-07-28T05:33:28;0.80;;;0.80;;
68072;SDS011;54862;51.502;7.446;2023-07-28T05:36:03;1.13;;;1.08;;
68072;SDS011;54862;51.502;7.446;2023-07-28T05:38:29;1.00;;;1.00;;
68072;SDS011;54862;51.502;7.446;2023-07-28T05:40:59;1.10;;;1.05;;
68072;SDS011;54862;51.502;7.446;2023-07-28T05:43:32;1.10;;;1.10;;
68072;SDS011;54862;51.502;7.446;2023-07-28T05:45:58;1.48;;;1.08;;
68072;SDS011;54862;51.502;7.446;2023-07-28T05:48:25;0.93;;;0.93;;
68072;SDS011;54862;51.502;7.446;2023-07-28T05:50:51;1.23;;;1.10;;
68072;SDS011;54862;51.502;7.446;2023-07-28T05:53:20;1.42;;;1.20;;
68072;SDS011;54862;51.502;7.446;2023-07-28T05:55:46;1.20;;;1.02;;
68072;SDS011;54862;51.502;7.446;2023-07-28T05:58:13;1.00;;;1.00;;
68072;SDS011;54862;51.502;7.446;2023-07-28T06:00:39;1.10;;;1.00;;
68072;SDS011;54862;51.502;7.446;2023-07-28T06:03:06;1.13;;;1.13;;
68072;SDS011;54862;51.502;7.446;2023-07-28T06:05:34;1.20;;;1.10;;
68072;SDS011;54862;51.502;7.446;2023-07-28T06:08:01;1.10;;;1.10;;
68072;SDS011;54862;51.502;7.446;2023-07-28T06:10:27;1.30;;;1.20;;
68072;SDS011;54862;51.502;7.446;2023-07-28T06:12:53;1.05;;;1.05;;
68072;SDS011;54862;51.502;7.446;2023-07-28T06:15:22;1.10;;;1.10;;
68072;SDS011;54862;51.502;7.446;2023-07-28T06:17:48;1.00;;;1.00;;
68072;SDS011;54862;51.502;7.446;2023-07-28T06:20:14;1.85;;;1.33;;
68072;SDS011;54862;51.502;7.446;2023-07-28T06:22:40;2.80;;;1.15;;
68072;SDS011;54862;51.502;7.446;2023-07-28T06:25:06;1.30;;;1.20;;
68072;SDS011;54862;51.502;7.446;2023-07-28T06:27:33;2.08;;;1.50;;
68072;SDS011;54862;51.502;7.446;2023-07-28T06:29:59;1.98;;;1.27;;
68072;SDS011;54862;51.502;7.446;2023-07-28T06:32:25;2.25;;;1.58;;
68072;SDS011;54862;51.502;7.446;2023-07-28T06:34:53;2.72;;;1.60;;
68072;SDS011;54862;51.502;7.446;2023-07-28T06:37:19;3.58;;;1.70;;
68072;SDS011;54862;51.502;7.446;2023-07-28T06:39:45;2.78;;;1.63;;
68072;SDS011;54862;51.502;7.446;2023-07-28T06:42:14;2.75;;;1.67;;
68072;SDS011;54862;51.502;7.446;2023-07-28T06:44:44;2.72;;;1.73;;
68072;SDS011;54862;51.502;7.446;2023-07-28T06:47:10;4.65;;;1.88;;
68072;SDS011;54862;51.502;7.446;2023-07-28T06:49:36;3.08;;;1.95;;
68072;SDS011;54862;51.502;7.446;2023-07-28T06:52:04;3.03;;;1.63;;
68072;SDS011;54862;51.502;7.446;2023-07-28T06:54:30;2.88;;;1.77;;
68072;SDS011;54862;51.502;7.446;2023-07-28T06:56:56;2.63;;;1.70;;
68072;SDS011;54862;51.502;7.446;2023-07-28T06:59:24;5.20;;;2.10;;
68072;SDS011;54862;51.502;7.446;2023-07-28T07:01:50;4.90;;;2.47;;
68072;SDS011;54862;51.502;7.446;2023-07-28T07:04:16;4.57;;;2.20;;
68072;SDS011;54862;51.502;7.446;2023-07-28T07:06:42;7.78;;;2.10;;
68072;SDS011;54862;51.502;7.446;2023-07-28T07:09:09;4.35;;;2.45;;
68072;SDS011;54862;51.502;7.446;2023-07-28T07:11:35;4.75;;;2.15;;
68072;SDS011;54862;51.502;7.446;2023-07-28T07:14:03;3.42;;;2.05;;
68072;SDS011;54862;51.502;7.446;2023-07-28T07:16:29;3.03;;;1.80;;
68072;SDS011;54862;51.502;7.446;2023-07-28T07:18:55;3.50;;;1.75;;
68072;SDS011;54862;51.502;7.446;2023-07-28T07:21:24;4.40;;;2.00;;
68072;SDS011;54862;51.502;7.446;2023-07-28T07:23:51;3.00;;;1.67;;
68072;SDS011;54862;51.502;7.446;2023-07-28T07:26:17;3.70;;;1.73;;
68072;SDS011;54862;51.502;7.446;2023-07-28T07:28:48;3.72;;;2.05;;
68072;SDS011;54862;51.502;7.446;2023-07-28T07:31:14;4.18;;;1.88;;
68072;SDS011;54862;51.502;7.446;2023-07-28T07:33:41;4.53;;;2.00;;
68072;SDS011;54862;51.502;7.446;2023-07-28T07:36:17;4.50;;;2.05;;
68072;SDS011;54862;51.502;7.446;2023-07-28T07:38:43;5.47;;;2.22;;
68072;SDS011;54862;51.502;7.446;2023-07-28T07:41:14;4.57;;;2.40;;
68072;SDS011;54862;51.502;7.446;2023-07-28T07:43:45;4.60;;;2.47;;
68072;SDS011;54862;51.502;7.446;2023-07-28T07:46:11;5.55;;;2.17;;
68072;SDS011;54862;51.502;7.446;2023-07-28T07:48:37;6.97;;;2.75;;
68072;SDS011;54862;51.502;7.446;2023-07-28T07:51:03;4.90;;;2.30;;
68072;SDS011;54862;51.502;7.446;2023-07-28T07:53:29;4.45;;;2.38;;
68072;SDS011;54862;51.502;7.446;2023-07-28T07:55:58;4.65;;;2.08;;
68072;SDS011;54862;51.502;7.446;2023-07-28T07:58:24;6.95;;;2.85;;
68072;SDS011;54862;51.502;7.446;2023-07-28T08:00:51;5.63;;;2.72;;
68072;SDS011;54862;51.502;7.446;2023-07-28T08:03:17;6.97;;;3.03;;
68072;SDS011;54862;51.502;7.446;2023-07-28T08:05:43;6.95;;;2.88;;
68072;SDS011;54862;51.502;7.446;2023-07-28T08:08:11;4.40;;;2.38;;
68072;SDS011;54862;51.502;7.446;2023-07-28T08:10:40;7.38;;;2.88;;
68072;SDS011;54862;51.502;7.446;2023-07-28T08:13:06;6.25;;;2.78;;
68072;SDS011;54862;51.502;7.446;2023-07-28T08:15:32;5.40;;;2.75;;
68072;SDS011;54862;51.502;7.446;2023-07-28T08:17:58;6.55;;;3.10;;
68072;SDS011;54862;51.502;7.446;2023-07-28T08:20:24;5.35;;;2.75;;
68072;SDS011;54862;51.502;7.446;2023-07-28T08:22:50;8.00;;;3.38;;
68072;SDS011;54862;51.502;7.446;2023-07-28T08:25:16;8.23;;;3.47;;
68072;SDS011;54862;51.502;7.446;2023-07-28T08:27:42;8.18;;;3.22;;
68072;SDS011;54862;51.502;7.446;2023-07-28T08:30:08;8.18;;;3.78;;
68072;SDS011;54862;51.502;7.446;2023-07-28T08:32:34;8.82;;;4.05;;
68072;SDS011;54862;51.502;7.446;2023-07-28T08:35:01;11.65;;;4.95;;
68072;SDS011;54862;51.502;7.446;2023-07-28T08:37:28;10.55;;;4.75;;
68072;SDS011;54862;51.502;7.446;2023-07-28T08:39:54;10.05;;;4.70;;
68072;SDS011;54862;51.502;7.446;2023-07-28T08:42:20;11.90;;;5.13;;
68072;SDS011;54862;51.502;7.446;2023-07-28T08:44:51;11.30;;;4.68;;
68072;SDS011;54862;51.502;7.446;2023-07-28T08:47:20;10.88;;;5.10;;
68072;SDS011;54862;51.502;7.446;2023-07-28T08:49:48;8.85;;;4.55;;
68072;SDS011;54862;51.502;7.446;2023-07-28T08:52:15;10.40;;;4.82;;
68072;SDS011;54862;51.502;7.446;2023-07-28T08:54:42;9.75;;;4.50;;
68072;SDS011;54862;51.502;7.446;2023-07-28T08:57:08;8.15;;;3.00;;
68072;SDS011;54862;51.502;7.446;2023-07-28T08:59:37;8.05;;;3.00;;
68072;SDS011;54862;51.502;7.446;2023-07-28T09:02:08;6.23;;;2.33;;
68072;SDS011;54862;51.502;7.446;2023-07-28T09:04:37;5.55;;;2.45;;
68072;SDS011;54862;51.502;7.446;2023-07-28T09:07:04;5.70;;;2.45;;
68072;SDS011;54862;51.502;7.446;2023-07-28T09:09:31;5.32;;;2.42;;
68072;SDS011;54862;51.502;7.446;2023-07-28T09:11:59;8.02;;;2.92;;
68072;SDS011;54862;51.502;7.446;2023-07-28T09:14:26;6.20;;;2.70;;
68072;SDS011;54862;51.502;7.446;2023-07-28T09:16:54;5.82;;;2.63;;
68072;SDS011;54862;51.502;7.446;2023-07-28T09:19:20;7.40;;;3.22;;
68072;SDS011;54862;51.502;7.446;2023-07-28T09:21:57;9.60;;;3.20;;
68072;SDS011;54862;51.502;7.446;2023-07-28T09:24:28;7.30;;;3.03;;
68072;SDS011;54862;51.502;7.446;2023-07-28T09:26:56;7.72;;;3.00;;
68072;SDS011;54862;51.502;7.446;2023-07-28T09:29:26;7.65;;;3.17;;
68072;SDS011;54862;51.502;7.446;2023-07-28T09:32:03;6.97;;;3.08;;
68072;SDS011;54862;51.502;7.446;2023-07-28T09:34:29;8.57;;;3.65;;
68072;SDS011;54862;51.502;7.446;2023-07-28T09:36:56;8.52;;;3.55;;
68072;SDS011;54862;51.502;7.446;2023-07-28T09:39:22;9.00;;;3.88;;
68072;SDS011;54862;51.502;7.446;2023-07-28T09:41:48;6.72;;;3.03;;
68072;SDS011;54862;51.502;7.446;2023-07-28T09:44:15;5.85;;;2.17;;
68072;SDS011;54862;51.502;7.446;2023-07-28T09:46:51;5.15;;;2.00;;
68072;SDS011;54862;51.502;7.446;2023-07-28T09:52:00;3.03;;;1.60;;
68072;SDS011;54862;51.502;7.446;2023-07-28T09:54:29;2.53;;;1.50;;
68072;SDS011;54862;51.502;7.446;2023-07-28T09:56:56;1.85;;;1.30;;
68072;SDS011;54862;51.502;7.446;2023-07-28T09:59:24;1.40;;;1.15;;
68072;SDS011;54862;51.502;7.446;2023-07-28T10:01:54;1.35;;;1.20;;
68072;SDS011;54862;51.502;7.446;2023-07-28T10:04:21;0.98;;;0.98;;
68072;SDS011;54862;51.502;7.446;2023-07-28T10:06:47;1.88;;;1.20;;
68072;SDS011;54862;51.502;7.446;2023-07-28T10:09:13;1.23;;;1.13;;
68072;SDS011;54862;51.502;7.446;2023-07-28T10:11:41;1.30;;;1.20;;
68072;SDS011;54862;51.502;7.446;2023-07-28T10:14:07;0.98;;;0.98;;
68072;SDS011;54862;51.502;7.446;2023-07-28T10:16:39;2.55;;;1.50;;
68072;SDS011;54862;51.502;7.446;2023-07-28T10:19:05;2.22;;;1.25;;
68072;SDS011;54862;51.502;7.446;2023-07-28T10:21:39;3.28;;;1.40;;
68072;SDS011;54862;51.502;7.446;2023-07-28T10:26:35;1.25;;;1.20;;
68072;SDS011;54862;51.502;7.446;2023-07-28T10:29:07;1.20;;;1.10;;
68072;SDS011;54862;51.502;7.446;2023-07-28T10:31:36;1.83;;;1.30;;
68072;SDS011;54862;51.502;7.446;2023-07-28T10:34:02;1.55;;;1.40;;
68072;SDS011;54862;51.502;7.446;2023-07-28T10:39:00;2.85;;;1.65;;
68072;SDS011;54862;51.502;7.446;2023-07-28T10:41:28;3.45;;;1.63;;
68072;SDS011;54862;51.502;7.446;2023-07-28T10:43:55;3.42;;;2.05;;
68072;SDS011;54862;51.502;7.446;2023-07-28T10:46:22;1.95;;;1.40;;
68072;SDS011;54862;51.502;7.446;2023-07-28T10:48:50;4.05;;;1.77;;
68072;SDS011;54862;51.502;7.446;2023-07-28T10:51:20;2.72;;;1.67;;
68072;SDS011;54862;51.502;7.446;2023-07-28T10:53:50;2.67;;;1.75;;
68072;SDS011;54862;51.502;7.446;2023-07-28T10:56:16;4.45;;;2.00;;
68072;SDS011;54862;51.502;7.446;2023-07-28T10:58:45;4.68;;;2.17;;
68072;SDS011;54862;51.502;7.446;2023-07-28T11:01:14;3.67;;;2.03;;
68072;SDS011;54862;51.502;7.446;2023-07-28T11:03:40;5.85;;;1.92;;
68072;SDS011;54862;51.502;7.446;2023-07-28T11:06:06;5.40;;;2.78;;
68072;SDS011;54862;51.502;7.446;2023-07-28T11:08:35;6.57;;;3.17;;
68072;SDS011;54862;51.502;7.446;2023-07-28T11:11:02;7.88;;;3.78;;
68072;SDS011;54862;51.502;7.446;2023-07-28T11:13:28;8.85;;;4.03;;
68072;SDS011;54862;51.502;7.446;2023-07-28T11:15:57;8.85;;;4.20;;
68072;SDS011;54862;51.502;7.446;2023-07-28T11:18:25;6.47;;;3.22;;
68072;SDS011;54862;51.502;7.446;2023-07-28T11:20:53;7.22;;;3.30;;
68072;SDS011;54862;51.502;7.446;2023-07-28T11:23:19;5.47;;;2.90;;
68072;SDS011;54862;51.502;7.446;2023-07-28T11:25:48;5.50;;;2.70;;
68072;SDS011;54862;51.502;7.446;2023-07-28T11:28:15;3.03;;;1.98;;
68072;SDS011;54862;51.502;7.446;2023-07-28T11:30:41;2.75;;;1.65;;
68072;SDS011;54862;51.502;7.446;2023-07-28T11:33:09;1.70;;;1.60;;
68072;SDS011;54862;51.502;7.446;2023-07-28T11:35:37;2.67;;;1.52;;
68072;SDS011;54862;51.502;7.446;2023-07-28T11:38:04;2.83;;;1.70;;
68072;SDS011;54862;51.502;7.446;2023-07-28T11:40:33;2.63;;;1.70;;
68072;SDS011;54862;51.502;7.446;2023-07-28T11:43:00;1.95;;;1.50;;
68072;SDS011;54862;51.502;7.446;2023-07-28T11:45:26;1.73;;;1.60;;
68072;SDS011;54862;51.502;7.446;2023-07-28T11:47:54;1.85;;;1.50;;
68072;SDS011;54862;51.502;7.446;2023-07-28T11:50:26;1.75;;;1.52;;
68072;SDS011;54862;51.502;7.446;2023-07-28T11:52:53;1.65;;;1.55;;
68072;SDS011;54862;51.502;7.446;2023-07-28T11:55:19;2.72;;;1.65;;
68072;SDS011;54862;51.502;7.446;2023-07-28T11:57:48;2.88;;;1.60;;
68072;SDS011;54862;51.502;7.446;2023-07-28T12:00:19;2.47;;;1.60;;
68072;SDS011;54862;51.502;7.446;2023-07-28T12:02:59;1.80;;;1.60;;
68072;SDS011;54862;51.502;7.446;2023-07-28T12:05:28;1.40;;;1.30;;
68072;SDS011;54862;51.502;7.446;2023-07-28T12:07:56;2.03;;;1.52;;
68072;SDS011;54862;51.502;7.446;2023-07-28T12:10:22;2.72;;;1.63;;
68072;SDS011;54862;51.502;7.446;2023-07-28T12:12:49;1.48;;;1.38;;
68072;SDS011;54862;51.502;7.446;2023-07-28T12:15:25;1.83;;;1.48;;
68072;SDS011;54862;51.502;7.446;2023-07-28T12:23:06;1.52;;;1.40;;
68072;SDS011;54862;51.502;7.446;2023-07-28T12:25:36;1.40;;;1.30;;
68072;SDS011;54862;51.502;7.446;2023-07-28T12:28:04;1.30;;;1.20;;
68072;SDS011;54862;51.502;7.446;2023-07-28T12:30:31;1.48;;;1.33;;
68072;SDS011;54862;51.502;7.446;2023-07-28T12:32:57;1.73;;;1.30;;
68072;SDS011;54862;51.502;7.446;2023-07-28T12:35:24;1.20;;;1.15;;
68072;SDS011;54862;51.502;7.446;2023-07-28T12:37:52;2.45;;;1.50;;
68072;SDS011;54862;51.502;7.446;2023-07-28T12:40:21;1.48;;;1.38;;
68072;SDS011;54862;51.502;7.446;2023-07-28T12:42:50;4.70;;;1.90;;
68072;SDS011;54862;51.502;7.446;2023-07-28T12:45:18;1.50;;;1.40;;
68072;SDS011;54862;51.502;7.446;2023-07-28T12:47:48;1.67;;;1.50;;
68072;SDS011;54862;51.502;7.446;2023-07-28T12:50:14;1.60;;;1.48;;
68072;SDS011;54862;51.502;7.446;2023-07-28T12:52:40;1.40;;;1.30;;
68072;SDS011;54862;51.502;7.446;2023-07-28T12:55:07;3.45;;;1.60;;
68072;SDS011;54862;51.502;7.446;2023-07-28T12:57:33;2.85;;;1.58;;
68072;SDS011;54862;51.502;7.446;2023-07-28T12:59:59;1.90;;;1.60;;
68072;SDS011;54862;51.502;7.446;2023-07-28T13:02:25;1.77;;;1.45;;
68072;SDS011;54862;51.502;7.446;2023-07-28T13:04:51;2.10;;;1.67;;
68072;SDS011;54862;51.502;7.446;2023-07-28T13:07:17;2.00;;;1.60;;
68072;SDS011;54862;51.502;7.446;2023-07-28T13:09:46;1.77;;;1.50;;
68072;SDS011;54862;51.502;7.446;2023-07-28T13:12:12;3.22;;;1.50;;
68072;SDS011;54862;51.502;7.446;2023-07-28T13:14:40;1.98;;;1.60;;
68072;SDS011;54862;51.502;7.446;2023-07-28T13:17:08;1.60;;;1.50;;
68072;SDS011;54862;51.502;7.446;2023-07-28T13:19:36;2.53;;;1.60;;
68072;SDS011;54862;51.502;7.446;2023-07-28T13:22:02;2.42;;;1.63;;
68072;SDS011;54862;51.502;7.446;2023-07-28T13:24:31;1.90;;;1.50;;
68072;SDS011;54862;51.502;7.446;2023-07-28T13:26:57;1.23;;;1.13;;
68072;SDS011;54862;51.502;7.446;2023-07-28T13:29:23;1.83;;;1.40;;
68072;SDS011;54862;51.502;7.446;2023-07-28T13:31:56;1.58;;;1.20;;
68072;SDS011;54862;51.502;7.446;2023-07-28T13:34:25;1.50;;;1.40;;
68072;SDS011;54862;51.502;7.446;2023-07-28T13:36:52;1.20;;;1.20;;
68072;SDS011;54862;51.502;7.446;2023-07-28T13:39:20;1.35;;;1.30;;
68072;SDS011;54862;51.502;7.446;2023-07-28T13:41:46;1.52;;;1.20;;
68072;SDS011;54862;51.502;7.446;2023-07-28T13:44:15;2.15;;;1.30;;
68072;SDS011;54862;51.502;7.446;2023-07-28T13:46:43;1.40;;;1.30;;
68072;SDS011;54862;51.502;7.446;2023-07-28T13:49:09;1.40;;;1.30;;
68072;SDS011;54862;51.502;7.446;2023-07-28T14:05:47;1.48;;;1.38;;
68072;SDS011;54862;51.502;7.446;2023-07-28T14:08:13;1.40;;;1.30;;
68072;SDS011;54862;51.502;7.446;2023-07-28T14:10:43;1.60;;;1.50;;
68072;SDS011;54862;51.502;7.446;2023-07-28T14:13:09;1.48;;;1.38;;
68072;SDS011;54862;51.502;7.446;2023-07-28T14:15:35;1.42;;;1.33;;
68072;SDS011;54862;51.502;7.446;2023-07-28T14:18:01;1.50;;;1.40;;
68072;SDS011;54862;51.502;7.446;2023-07-28T14:20:27;1.40;;;1.30;;
68072;SDS011;54862;51.502;7.446;2023-07-28T14:22:53;1.60;;;1.50;;
68072;SDS011;54862;51.502;7.446;2023-07-28T14:25:19;1.75;;;1.55;;
68072;SDS011;54862;51.502;7.446;2023-07-28T14:27:47;1.73;;;1.63;;
68072;SDS011;54862;51.502;7.446;2023-07-28T14:30:13;1.52;;;1.35;;
68072;SDS011;54862;51.502;7.446;2023-07-28T14:32:39;2.15;;;1.70;;
68072;SDS011;54862;51.502;7.446;2023-07-28T14:35:07;1.75;;;1.55;;
68072;SDS011;54862;51.502;7.446;2023-07-28T14:37:33;1.52;;;1.42;;
68072;SDS011;54862;51.502;7.446;2023-07-28T14:39:59;1.60;;;1.50;;
68072;SDS011;54862;51.502;7.446;2023-07-28T14:42:25;1.30;;;1.30;;
68072;SDS011;54862;51.502;7.446;2023-07-28T14:44:51;1.60;;;1.50;;
68072;SDS011;54862;51.502;7.446;2023-07-28T14:47:17;1.65;;;1.45;;
68072;SDS011;54862;51.502;7.446;2023-07-28T14:49:43;2.90;;;1.30;;
68072;SDS011;54862;51.502;7.446;2023-07-28T14:52:14;1.40;;;1.17;;
68072;SDS011;54862;51.502;7.446;2023-07-28T14:54:42;1.33;;;1.25;;
68072;SDS011;54862;51.502;7.446;2023-07-28T14:57:08;1.30;;;1.08;;
68072;SDS011;54862;51.502;7.446;2023-07-28T14:59:39;1.00;;;1.00;;
68072;SDS011;54862;51.502;7.446;2023-07-28T15:02:05;1.30;;;1.20;;
68072;SDS011;54862;51.502;7.446;2023-07-28T15:04:31;1.33;;;1.23;;
68072;SDS011;54862;51.502;7.446;2023-07-28T15:06:57;1.13;;;1.10;;
68072;SDS011;54862;51.502;7.446;2023-07-28T15:09:22;1.50;;;1.40;;
68072;SDS011;54862;51.502;7.446;2023-07-28T15:11:51;1.40;;;1.30;;
68072;SDS011;54862;51.502;7.446;2023-07-28T15:14:17;1.65;;;1.20;;
68072;SDS011;54862;51.502;7.446;2023-07-28T15:16:45;1.25;;;1.15;;
68072;SDS011;54862;51.502;7.446;2023-07-28T15:19:11;1.40;;;1.20;;